sensor_id;sensor_type;location;lat;lon;timestamp;P1;durP1;ratioP1;P2;durP2;ratioP2
75272;SDS011;63869;52.344;16.928;2022-11-15T00:01:23;57.35;;;23.52;;
75272;SDS011;63869;52.344;16.928;2022-11-15T00:03:50;58.13;;;24.30;;
75272;SDS011;63869;52.344;16.928;2022-11-15T00:06:16;60.35;;;25.23;;
75272;SDS011;63869;52.344;16.928;2022-11-15T00:08:41;62.28;;;24.30;;
75272;SDS011;63869;52.344;16.928;2022-11-15T00:11:08;67.82;;;25.35;;
75272;SDS011;63869;52.344;16.928;2022-11-15T00:13:35;58.05;;;24.95;;
75272;SDS011;63869;52.344;16.928;2022-11-15T00:16:01;64.22;;;24.42;;
75272;SDS011;63869;52.344;16.928;2022-11-15T00:18:27;68.68;;;24.98;;
75272;SDS011;63869;52.344;16.928;2022-11-15T00:20:53;65.35;;;24.80;;
75272;SDS011;63869;52.344;16.928;2022-11-15T00:23:18;57.25;;;24.67;;
75272;SDS011;63869;52.344;16.928;2022-11-15T00:25:44;59.53;;;24.98;;
75272;SDS011;63869;52.344;16.928;2022-11-15T00:28:09;62.58;;;24.38;;
75272;SDS011;63869;52.344;16.928;2022-11-15T00:30:34;61.28;;;24.90;;
75272;SDS011;63869;52.344;16.928;2022-11-15T00:33:06;61.38;;;25.92;;
75272;SDS011;63869;52.344;16.928;2022-11-15T00:35:32;58.10;;;24.65;;
75272;SDS011;63869;52.344;16.928;2022-11-15T00:37:59;65.50;;;24.48;;
75272;SDS011;63869;52.344;16.928;2022-11-15T00:40:24;65.55;;;24.80;;
75272;SDS011;63869;52.344;16.928;2022-11-15T00:42:49;60.08;;;25.05;;
75272;SDS011;63869;52.344;16.928;2022-11-15T00:45:15;60.63;;;25.48;;
75272;SDS011;63869;52.344;16.928;2022-11-15T00:47:40;58.92;;;24.92;;
75272;SDS011;63869;52.344;16.928;2022-11-15T00:50:05;53.92;;;24.92;;
75272;SDS011;63869;52.344;16.928;2022-11-15T00:52:31;74.20;;;24.58;;
75272;SDS011;63869;52.344;16.928;2022-11-15T00:54:56;62.85;;;25.48;;
75272;SDS011;63869;52.344;16.928;2022-11-15T00:57:21;60.70;;;24.52;;
75272;SDS011;63869;52.344;16.928;2022-11-15T00:59:47;58.17;;;24.20;;
75272;SDS011;63869;52.344;16.928;2022-11-15T01:02:12;59.78;;;26.40;;
75272;SDS011;63869;52.344;16.928;2022-11-15T01:04:38;65.97;;;23.73;;
75272;SDS011;63869;52.344;16.928;2022-11-15T01:07:04;65.22;;;24.02;;
75272;SDS011;63869;52.344;16.928;2022-11-15T01:09:29;60.03;;;24.90;;
75272;SDS011;63869;52.344;16.928;2022-11-15T01:11:54;73.70;;;26.52;;
75272;SDS011;63869;52.344;16.928;2022-11-15T01:14:19;62.42;;;25.30;;
75272;SDS011;63869;52.344;16.928;2022-11-15T01:16:45;77.18;;;27.92;;
75272;SDS011;63869;52.344;16.928;2022-11-15T01:19:10;63.70;;;25.80;;
75272;SDS011;63869;52.344;16.928;2022-11-15T01:21:35;60.60;;;24.27;;
75272;SDS011;63869;52.344;16.928;2022-11-15T01:24:01;61.95;;;25.50;;
75272;SDS011;63869;52.344;16.928;2022-11-15T01:26:26;62.33;;;25.33;;
75272;SDS011;63869;52.344;16.928;2022-11-15T01:28:52;70.18;;;27.38;;
75272;SDS011;63869;52.344;16.928;2022-11-15T01:31:18;58.85;;;25.10;;
75272;SDS011;63869;52.344;16.928;2022-11-15T01:33:45;64.15;;;24.30;;
75272;SDS011;63869;52.344;16.928;2022-11-15T01:36:13;59.30;;;24.85;;
75272;SDS011;63869;52.344;16.928;2022-11-15T01:38:40;54.85;;;24.67;;
75272;SDS011;63869;52.344;16.928;2022-11-15T01:41:05;68.75;;;25.30;;
75272;SDS011;63869;52.344;16.928;2022-11-15T01:43:32;60.05;;;23.85;;
75272;SDS011;63869;52.344;16.928;2022-11-15T01:46:04;58.42;;;24.60;;
75272;SDS011;63869;52.344;16.928;2022-11-15T01:48:36;53.40;;;23.42;;
75272;SDS011;63869;52.344;16.928;2022-11-15T01:51:02;65.10;;;25.23;;
75272;SDS011;63869;52.344;16.928;2022-11-15T01:53:34;62.17;;;25.33;;
75272;SDS011;63869;52.344;16.928;2022-11-15T01:56:04;68.95;;;24.42;;
75272;SDS011;63869;52.344;16.928;2022-11-15T01:58:32;65.20;;;28.35;;
75272;SDS011;63869;52.344;16.928;2022-11-15T02:00:58;68.88;;;26.42;;
75272;SDS011;63869;52.344;16.928;2022-11-15T02:03:25;63.08;;;25.77;;
75272;SDS011;63869;52.344;16.928;2022-11-15T02:05:56;73.20;;;27.40;;
75272;SDS011;63869;52.344;16.928;2022-11-15T02:08:22;66.88;;;26.55;;
75272;SDS011;63869;52.344;16.928;2022-11-15T02:10:48;72.35;;;26.25;;
75272;SDS011;63869;52.344;16.928;2022-11-15T02:13:16;62.05;;;26.55;;
75272;SDS011;63869;52.344;16.928;2022-11-15T02:15:56;68.05;;;27.38;;
75272;SDS011;63869;52.344;16.928;2022-11-15T02:18:32;57.60;;;24.88;;
75272;SDS011;63869;52.344;16.928;2022-11-15T02:32:03;61.42;;;24.17;;
75272;SDS011;63869;52.344;16.928;2022-11-15T02:34:43;62.03;;;24.35;;
75272;SDS011;63869;52.344;16.928;2022-11-15T02:43:04;56.92;;;23.33;;
75272;SDS011;63869;52.344;16.928;2022-11-15T02:45:54;54.47;;;21.88;;
75272;SDS011;63869;52.344;16.928;2022-11-15T02:48:26;52.60;;;23.08;;
75272;SDS011;63869;52.344;16.928;2022-11-15T02:50:51;58.47;;;23.70;;
75272;SDS011;63869;52.344;16.928;2022-11-15T02:53:17;53.65;;;23.65;;
75272;SDS011;63869;52.344;16.928;2022-11-15T02:55:49;53.42;;;23.80;;
75272;SDS011;63869;52.344;16.928;2022-11-15T03:03:47;55.08;;;23.65;;
75272;SDS011;63869;52.344;16.928;2022-11-15T03:12:04;58.05;;;22.05;;
75272;SDS011;63869;52.344;16.928;2022-11-15T03:14:57;57.70;;;23.15;;
75272;SDS011;63869;52.344;16.928;2022-11-15T03:20:24;56.10;;;22.20;;
75272;SDS011;63869;52.344;16.928;2022-11-15T03:22:52;50.08;;;21.98;;
75272;SDS011;63869;52.344;16.928;2022-11-15T03:25:21;49.75;;;24.25;;
75272;SDS011;63869;52.344;16.928;2022-11-15T03:27:50;55.80;;;24.80;;
75272;SDS011;63869;52.344;16.928;2022-11-15T03:30:18;55.75;;;24.80;;
75272;SDS011;63869;52.344;16.928;2022-11-15T03:32:45;62.60;;;25.27;;
75272;SDS011;63869;52.344;16.928;2022-11-15T03:35:14;53.47;;;24.52;;
75272;SDS011;63869;52.344;16.928;2022-11-15T03:37:48;51.10;;;22.88;;
75272;SDS011;63869;52.344;16.928;2022-11-15T03:40:21;59.55;;;24.40;;
75272;SDS011;63869;52.344;16.928;2022-11-15T03:45:48;50.33;;;21.67;;
75272;SDS011;63869;52.344;16.928;2022-11-15T03:48:22;49.15;;;21.83;;
75272;SDS011;63869;52.344;16.928;2022-11-15T03:50:50;47.60;;;22.15;;
75272;SDS011;63869;52.344;16.928;2022-11-15T03:53:16;47.97;;;22.40;;
75272;SDS011;63869;52.344;16.928;2022-11-15T03:55:41;55.28;;;23.75;;
75272;SDS011;63869;52.344;16.928;2022-11-15T03:58:07;48.40;;;23.30;;
75272;SDS011;63869;52.344;16.928;2022-11-15T04:00:32;55.28;;;23.20;;
75272;SDS011;63869;52.344;16.928;2022-11-15T04:02:58;51.55;;;23.23;;
75272;SDS011;63869;52.344;16.928;2022-11-15T04:05:23;52.25;;;24.40;;
75272;SDS011;63869;52.344;16.928;2022-11-15T04:07:49;62.65;;;24.40;;
75272;SDS011;63869;52.344;16.928;2022-11-15T04:10:14;60.72;;;24.55;;
75272;SDS011;63869;52.344;16.928;2022-11-15T04:12:40;55.53;;;25.60;;
75272;SDS011;63869;52.344;16.928;2022-11-15T04:17:36;55.50;;;26.13;;
75272;SDS011;63869;52.344;16.928;2022-11-15T04:20:19;59.88;;;25.23;;
75272;SDS011;63869;52.344;16.928;2022-11-15T04:23:06;54.67;;;24.92;;
75272;SDS011;63869;52.344;16.928;2022-11-15T04:25:53;65.30;;;24.65;;
75272;SDS011;63869;52.344;16.928;2022-11-15T04:28:19;58.72;;;26.35;;
75272;SDS011;63869;52.344;16.928;2022-11-15T04:30:45;63.63;;;26.88;;
75272;SDS011;63869;52.344;16.928;2022-11-15T04:33:10;59.28;;;26.38;;
75272;SDS011;63869;52.344;16.928;2022-11-15T04:35:36;57.88;;;26.08;;
75272;SDS011;63869;52.344;16.928;2022-11-15T04:38:02;57.47;;;24.77;;
75272;SDS011;63869;52.344;16.928;2022-11-15T04:40:28;57.47;;;25.67;;
75272;SDS011;63869;52.344;16.928;2022-11-15T04:42:53;65.97;;;26.65;;
75272;SDS011;63869;52.344;16.928;2022-11-15T04:45:19;55.20;;;24.88;;
75272;SDS011;63869;52.344;16.928;2022-11-15T04:47:44;65.45;;;25.90;;
75272;SDS011;63869;52.344;16.928;2022-11-15T04:50:10;62.28;;;26.30;;
75272;SDS011;63869;52.344;16.928;2022-11-15T04:52:38;61.75;;;26.80;;
75272;SDS011;63869;52.344;16.928;2022-11-15T04:55:07;60.30;;;24.85;;
75272;SDS011;63869;52.344;16.928;2022-11-15T04:57:34;62.90;;;24.05;;
75272;SDS011;63869;52.344;16.928;2022-11-15T04:59:59;66.15;;;25.00;;
75272;SDS011;63869;52.344;16.928;2022-11-15T05:02:24;58.30;;;25.77;;
75272;SDS011;63869;52.344;16.928;2022-11-15T05:05:09;60.20;;;26.17;;
75272;SDS011;63869;52.344;16.928;2022-11-15T05:07:35;53.65;;;24.52;;
75272;SDS011;63869;52.344;16.928;2022-11-15T05:10:00;57.78;;;24.00;;
75272;SDS011;63869;52.344;16.928;2022-11-15T05:12:25;59.33;;;24.92;;
75272;SDS011;63869;52.344;16.928;2022-11-15T05:14:50;50.47;;;24.70;;
75272;SDS011;63869;52.344;16.928;2022-11-15T05:17:16;54.95;;;24.90;;
75272;SDS011;63869;52.344;16.928;2022-11-15T05:19:41;55.47;;;24.35;;
75272;SDS011;63869;52.344;16.928;2022-11-15T05:22:06;55.38;;;25.13;;
75272;SDS011;63869;52.344;16.928;2022-11-15T05:24:31;67.68;;;25.35;;
75272;SDS011;63869;52.344;16.928;2022-11-15T05:26:57;55.10;;;25.88;;
75272;SDS011;63869;52.344;16.928;2022-11-15T05:29:22;63.30;;;26.58;;
75272;SDS011;63869;52.344;16.928;2022-11-15T05:31:47;57.50;;;25.85;;
75272;SDS011;63869;52.344;16.928;2022-11-15T05:34:12;56.80;;;24.50;;
75272;SDS011;63869;52.344;16.928;2022-11-15T05:36:42;51.70;;;24.48;;
75272;SDS011;63869;52.344;16.928;2022-11-15T05:39:10;53.00;;;24.77;;
75272;SDS011;63869;52.344;16.928;2022-11-15T05:41:40;59.25;;;25.48;;
75272;SDS011;63869;52.344;16.928;2022-11-15T05:46:36;63.75;;;23.40;;
75272;SDS011;63869;52.344;16.928;2022-11-15T05:49:04;51.80;;;23.35;;
75272;SDS011;63869;52.344;16.928;2022-11-15T05:51:31;52.10;;;24.50;;
75272;SDS011;63869;52.344;16.928;2022-11-15T05:53:56;58.05;;;26.00;;
75272;SDS011;63869;52.344;16.928;2022-11-15T05:56:23;56.83;;;24.88;;
75272;SDS011;63869;52.344;16.928;2022-11-15T05:58:49;56.45;;;23.95;;
75272;SDS011;63869;52.344;16.928;2022-11-15T06:01:17;58.63;;;26.23;;
75272;SDS011;63869;52.344;16.928;2022-11-15T06:03:43;55.15;;;26.27;;
75272;SDS011;63869;52.344;16.928;2022-11-15T06:06:08;58.95;;;25.10;;
75272;SDS011;63869;52.344;16.928;2022-11-15T06:08:33;59.92;;;24.42;;
75272;SDS011;63869;52.344;16.928;2022-11-15T06:11:02;63.95;;;24.95;;
75272;SDS011;63869;52.344;16.928;2022-11-15T06:13:29;64.53;;;25.42;;
75272;SDS011;63869;52.344;16.928;2022-11-15T06:15:55;56.63;;;24.25;;
75272;SDS011;63869;52.344;16.928;2022-11-15T06:18:21;60.17;;;26.35;;
75272;SDS011;63869;52.344;16.928;2022-11-15T06:20:46;67.25;;;26.35;;
75272;SDS011;63869;52.344;16.928;2022-11-15T06:23:11;58.88;;;26.38;;
75272;SDS011;63869;52.344;16.928;2022-11-15T06:25:38;55.65;;;25.20;;
75272;SDS011;63869;52.344;16.928;2022-11-15T06:28:03;60.05;;;25.92;;
75272;SDS011;63869;52.344;16.928;2022-11-15T06:30:28;58.05;;;26.13;;
75272;SDS011;63869;52.344;16.928;2022-11-15T06:33:04;62.78;;;27.77;;
75272;SDS011;63869;52.344;16.928;2022-11-15T06:35:30;67.55;;;28.33;;
75272;SDS011;63869;52.344;16.928;2022-11-15T06:38:01;59.85;;;25.77;;
75272;SDS011;63869;52.344;16.928;2022-11-15T06:40:32;64.15;;;26.83;;
75272;SDS011;63869;52.344;16.928;2022-11-15T06:43:00;62.50;;;27.52;;
75272;SDS011;63869;52.344;16.928;2022-11-15T06:45:25;67.30;;;26.17;;
75272;SDS011;63869;52.344;16.928;2022-11-15T06:47:51;67.53;;;25.60;;
75272;SDS011;63869;52.344;16.928;2022-11-15T06:50:17;62.13;;;26.38;;
75272;SDS011;63869;52.344;16.928;2022-11-15T06:52:42;60.35;;;25.45;;
75272;SDS011;63869;52.344;16.928;2022-11-15T06:55:08;56.88;;;25.30;;
75272;SDS011;63869;52.344;16.928;2022-11-15T06:57:33;71.03;;;25.70;;
75272;SDS011;63869;52.344;16.928;2022-11-15T06:59:59;72.93;;;26.08;;
75272;SDS011;63869;52.344;16.928;2022-11-15T07:02:24;72.53;;;27.25;;
75272;SDS011;63869;52.344;16.928;2022-11-15T07:04:50;69.97;;;27.73;;
75272;SDS011;63869;52.344;16.928;2022-11-15T07:07:15;62.80;;;27.42;;
75272;SDS011;63869;52.344;16.928;2022-11-15T07:09:42;60.42;;;27.38;;
75272;SDS011;63869;52.344;16.928;2022-11-15T07:12:07;69.07;;;25.17;;
75272;SDS011;63869;52.344;16.928;2022-11-15T07:14:32;64.40;;;26.17;;
75272;SDS011;63869;52.344;16.928;2022-11-15T07:16:58;62.22;;;26.65;;
75272;SDS011;63869;52.344;16.928;2022-11-15T07:19:23;58.38;;;25.30;;
75272;SDS011;63869;52.344;16.928;2022-11-15T07:21:48;61.50;;;25.58;;
75272;SDS011;63869;52.344;16.928;2022-11-15T07:24:13;71.07;;;27.85;;
75272;SDS011;63869;52.344;16.928;2022-11-15T07:26:39;63.10;;;26.10;;
75272;SDS011;63869;52.344;16.928;2022-11-15T07:29:04;67.63;;;25.60;;
75272;SDS011;63869;52.344;16.928;2022-11-15T07:31:29;59.10;;;25.67;;
75272;SDS011;63869;52.344;16.928;2022-11-15T07:33:56;66.47;;;24.50;;
75272;SDS011;63869;52.344;16.928;2022-11-15T07:36:21;67.53;;;24.38;;
75272;SDS011;63869;52.344;16.928;2022-11-15T07:38:47;62.85;;;24.52;;
75272;SDS011;63869;52.344;16.928;2022-11-15T07:41:12;69.85;;;25.58;;
75272;SDS011;63869;52.344;16.928;2022-11-15T07:43:37;63.20;;;25.17;;
75272;SDS011;63869;52.344;16.928;2022-11-15T07:46:06;56.75;;;24.77;;
75272;SDS011;63869;52.344;16.928;2022-11-15T07:48:34;55.90;;;23.90;;
75272;SDS011;63869;52.344;16.928;2022-11-15T07:51:06;47.20;;;22.75;;
75272;SDS011;63869;52.344;16.928;2022-11-15T07:53:32;55.45;;;23.15;;
75272;SDS011;63869;52.344;16.928;2022-11-15T07:55:57;45.72;;;21.98;;
75272;SDS011;63869;52.344;16.928;2022-11-15T07:58:23;50.83;;;22.73;;
75272;SDS011;63869;52.344;16.928;2022-11-15T08:00:48;54.38;;;22.20;;
75272;SDS011;63869;52.344;16.928;2022-11-15T08:03:14;47.63;;;21.88;;
75272;SDS011;63869;52.344;16.928;2022-11-15T08:05:41;43.53;;;21.58;;
75272;SDS011;63869;52.344;16.928;2022-11-15T08:08:07;54.65;;;22.90;;
75272;SDS011;63869;52.344;16.928;2022-11-15T08:10:34;55.65;;;21.88;;
75272;SDS011;63869;52.344;16.928;2022-11-15T08:13:04;42.45;;;21.42;;
75272;SDS011;63869;52.344;16.928;2022-11-15T08:15:31;45.33;;;21.00;;
75272;SDS011;63869;52.344;16.928;2022-11-15T08:17:58;43.60;;;20.77;;
75272;SDS011;63869;52.344;16.928;2022-11-15T08:20:28;43.70;;;20.42;;
75272;SDS011;63869;52.344;16.928;2022-11-15T08:22:58;44.75;;;22.08;;
75272;SDS011;63869;52.344;16.928;2022-11-15T08:25:25;41.28;;;20.92;;
75272;SDS011;63869;52.344;16.928;2022-11-15T08:27:52;44.60;;;21.67;;
75272;SDS011;63869;52.344;16.928;2022-11-15T08:30:18;48.88;;;20.90;;
75272;SDS011;63869;52.344;16.928;2022-11-15T08:32:44;51.75;;;20.55;;
75272;SDS011;63869;52.344;16.928;2022-11-15T08:35:09;43.47;;;21.92;;
75272;SDS011;63869;52.344;16.928;2022-11-15T08:37:34;54.42;;;20.25;;
75272;SDS011;63869;52.344;16.928;2022-11-15T08:40:00;46.33;;;20.73;;
75272;SDS011;63869;52.344;16.928;2022-11-15T08:42:26;47.80;;;20.90;;
75272;SDS011;63869;52.344;16.928;2022-11-15T08:44:51;48.95;;;22.02;;
75272;SDS011;63869;52.344;16.928;2022-11-15T08:47:16;41.22;;;19.20;;
75272;SDS011;63869;52.344;16.928;2022-11-15T08:49:42;41.22;;;21.38;;
75272;SDS011;63869;52.344;16.928;2022-11-15T08:52:07;45.97;;;20.92;;
75272;SDS011;63869;52.344;16.928;2022-11-15T08:54:32;40.45;;;19.33;;
75272;SDS011;63869;52.344;16.928;2022-11-15T08:56:57;41.72;;;21.63;;
75272;SDS011;63869;52.344;16.928;2022-11-15T08:59:23;50.10;;;21.73;;
75272;SDS011;63869;52.344;16.928;2022-11-15T09:01:48;46.38;;;20.40;;
75272;SDS011;63869;52.344;16.928;2022-11-15T09:04:13;49.17;;;22.67;;
75272;SDS011;63869;52.344;16.928;2022-11-15T09:06:38;48.22;;;22.65;;
75272;SDS011;63869;52.344;16.928;2022-11-15T09:09:04;52.28;;;21.50;;
75272;SDS011;63869;52.344;16.928;2022-11-15T09:11:29;47.42;;;21.90;;
75272;SDS011;63869;52.344;16.928;2022-11-15T09:13:54;45.20;;;22.00;;
75272;SDS011;63869;52.344;16.928;2022-11-15T09:16:20;44.03;;;21.88;;
75272;SDS011;63869;52.344;16.928;2022-11-15T09:18:45;49.35;;;22.33;;
75272;SDS011;63869;52.344;16.928;2022-11-15T09:21:10;42.60;;;21.52;;
75272;SDS011;63869;52.344;16.928;2022-11-15T09:23:36;47.08;;;22.30;;
75272;SDS011;63869;52.344;16.928;2022-11-15T09:26:02;48.38;;;21.83;;
75272;SDS011;63869;52.344;16.928;2022-11-15T09:28:29;52.80;;;23.17;;
75272;SDS011;63869;52.344;16.928;2022-11-15T09:30:56;50.42;;;22.45;;
75272;SDS011;63869;52.344;16.928;2022-11-15T09:33:23;50.05;;;21.65;;
75272;SDS011;63869;52.344;16.928;2022-11-15T09:35:48;45.25;;;23.08;;
75272;SDS011;63869;52.344;16.928;2022-11-15T09:38:14;49.38;;;22.55;;
75272;SDS011;63869;52.344;16.928;2022-11-15T09:40:39;48.22;;;22.45;;
75272;SDS011;63869;52.344;16.928;2022-11-15T09:43:07;43.25;;;21.00;;
75272;SDS011;63869;52.344;16.928;2022-11-15T09:46:12;46.15;;;22.23;;
75272;SDS011;63869;52.344;16.928;2022-11-15T09:48:49;46.30;;;22.25;;
75272;SDS011;63869;52.344;16.928;2022-11-15T09:51:35;53.05;;;22.85;;
75272;SDS011;63869;52.344;16.928;2022-11-15T09:57:09;50.92;;;23.55;;
75272;SDS011;63869;52.344;16.928;2022-11-15T10:05:10;49.55;;;23.98;;
75272;SDS011;63869;52.344;16.928;2022-11-15T10:07:40;47.47;;;23.42;;
75272;SDS011;63869;52.344;16.928;2022-11-15T10:12:48;46.97;;;23.05;;
75272;SDS011;63869;52.344;16.928;2022-11-15T10:15:16;49.15;;;24.50;;
75272;SDS011;63869;52.344;16.928;2022-11-15T10:20:24;47.92;;;22.85;;
75272;SDS011;63869;52.344;16.928;2022-11-15T10:22:54;52.00;;;23.42;;
75272;SDS011;63869;52.344;16.928;2022-11-15T10:25:28;48.88;;;24.30;;
75272;SDS011;63869;52.344;16.928;2022-11-15T10:27:55;51.70;;;23.98;;
75272;SDS011;63869;52.344;16.928;2022-11-15T10:30:24;51.25;;;25.30;;
75272;SDS011;63869;52.344;16.928;2022-11-15T10:32:55;49.87;;;25.50;;
75272;SDS011;63869;52.344;16.928;2022-11-15T10:37:48;54.85;;;25.73;;
75272;SDS011;63869;52.344;16.928;2022-11-15T10:42:44;48.47;;;24.52;;
75272;SDS011;63869;52.344;16.928;2022-11-15T10:45:23;47.25;;;23.42;;
75272;SDS011;63869;52.344;16.928;2022-11-15T10:47:53;52.10;;;25.48;;
75272;SDS011;63869;52.344;16.928;2022-11-15T10:50:31;49.80;;;24.25;;
75272;SDS011;63869;52.344;16.928;2022-11-15T10:52:57;56.47;;;25.58;;
75272;SDS011;63869;52.344;16.928;2022-11-15T10:55:26;54.00;;;24.98;;
75272;SDS011;63869;52.344;16.928;2022-11-15T10:58:28;53.92;;;25.42;;
75272;SDS011;63869;52.344;16.928;2022-11-15T11:01:18;56.50;;;26.13;;
75272;SDS011;63869;52.344;16.928;2022-11-15T11:04:00;53.75;;;24.60;;
75272;SDS011;63869;52.344;16.928;2022-11-15T11:06:29;54.30;;;25.00;;
75272;SDS011;63869;52.344;16.928;2022-11-15T11:08:57;49.75;;;24.63;;
75272;SDS011;63869;52.344;16.928;2022-11-15T11:11:22;52.85;;;24.92;;
75272;SDS011;63869;52.344;16.928;2022-11-15T11:13:48;55.83;;;26.38;;
75272;SDS011;63869;52.344;16.928;2022-11-15T11:21:28;51.20;;;25.80;;
75272;SDS011;63869;52.344;16.928;2022-11-15T11:30:08;52.50;;;25.10;;
75272;SDS011;63869;52.344;16.928;2022-11-15T11:38:49;47.03;;;23.23;;
75272;SDS011;63869;52.344;16.928;2022-11-15T11:43:59;54.90;;;27.88;;
75272;SDS011;63869;52.344;16.928;2022-11-15T11:49:12;52.80;;;25.55;;
75272;SDS011;63869;52.344;16.928;2022-11-15T11:51:45;56.97;;;27.00;;
75272;SDS011;63869;52.344;16.928;2022-11-15T12:00:04;48.10;;;24.23;;
75272;SDS011;63869;52.344;16.928;2022-11-15T12:02:31;44.72;;;23.25;;
75272;SDS011;63869;52.344;16.928;2022-11-15T12:05:04;47.83;;;24.23;;
75272;SDS011;63869;52.344;16.928;2022-11-15T12:07:35;41.97;;;22.58;;
75272;SDS011;63869;52.344;16.928;2022-11-15T12:10:05;51.05;;;24.25;;
75272;SDS011;63869;52.344;16.928;2022-11-15T12:12:53;48.85;;;25.73;;
75272;SDS011;63869;52.344;16.928;2022-11-15T12:15:33;53.67;;;27.05;;
75272;SDS011;63869;52.344;16.928;2022-11-15T12:18:04;53.10;;;24.98;;
75272;SDS011;63869;52.344;16.928;2022-11-15T12:20:36;53.78;;;24.90;;
75272;SDS011;63869;52.344;16.928;2022-11-15T12:23:13;53.53;;;26.63;;
75272;SDS011;63869;52.344;16.928;2022-11-15T12:28:30;59.58;;;27.33;;
75272;SDS011;63869;52.344;16.928;2022-11-15T12:31:05;55.65;;;25.88;;
75272;SDS011;63869;52.344;16.928;2022-11-15T12:33:41;57.90;;;28.23;;
75272;SDS011;63869;52.344;16.928;2022-11-15T12:36:09;51.60;;;26.08;;
75272;SDS011;63869;52.344;16.928;2022-11-15T12:38:54;56.28;;;25.75;;
75272;SDS011;63869;52.344;16.928;2022-11-15T12:41:19;50.70;;;25.38;;
75272;SDS011;63869;52.344;16.928;2022-11-15T12:43:47;53.92;;;24.52;;
75272;SDS011;63869;52.344;16.928;2022-11-15T12:46:19;51.45;;;25.70;;
75272;SDS011;63869;52.344;16.928;2022-11-15T12:49:09;57.00;;;25.80;;
75272;SDS011;63869;52.344;16.928;2022-11-15T13:17:52;71.95;;;32.85;;
75272;SDS011;63869;52.344;16.928;2022-11-15T13:20:29;70.40;;;29.23;;
75272;SDS011;63869;52.344;16.928;2022-11-15T13:23:09;73.40;;;31.00;;
75272;SDS011;63869;52.344;16.928;2022-11-15T13:25:48;75.32;;;31.42;;
75272;SDS011;63869;52.344;16.928;2022-11-15T13:31:45;81.05;;;30.95;;
75272;SDS011;63869;52.344;16.928;2022-11-15T13:34:29;72.00;;;31.40;;
75272;SDS011;63869;52.344;16.928;2022-11-15T13:37:01;77.30;;;30.80;;
75272;SDS011;63869;52.344;16.928;2022-11-15T13:41:52;77.03;;;31.75;;
75272;SDS011;63869;52.344;16.928;2022-11-15T13:44:21;68.85;;;30.58;;
75272;SDS011;63869;52.344;16.928;2022-11-15T13:46:48;68.45;;;31.20;;
75272;SDS011;63869;52.344;16.928;2022-11-15T13:49:28;72.43;;;32.03;;
75272;SDS011;63869;52.344;16.928;2022-11-15T13:51:55;69.70;;;29.00;;
75272;SDS011;63869;52.344;16.928;2022-11-15T13:56:51;66.43;;;29.02;;
75272;SDS011;63869;52.344;16.928;2022-11-15T14:02:15;70.82;;;30.05;;
75272;SDS011;63869;52.344;16.928;2022-11-15T14:04:59;62.95;;;26.27;;
75272;SDS011;63869;52.344;16.928;2022-11-15T14:07:27;78.80;;;29.02;;
75272;SDS011;63869;52.344;16.928;2022-11-15T14:09:54;60.70;;;26.42;;
75272;SDS011;63869;52.344;16.928;2022-11-15T14:12:27;57.50;;;25.75;;
75272;SDS011;63869;52.344;16.928;2022-11-15T14:14:58;59.10;;;24.88;;
75272;SDS011;63869;52.344;16.928;2022-11-15T14:17:43;51.50;;;23.55;;
75272;SDS011;63869;52.344;16.928;2022-11-15T14:22:53;64.07;;;25.52;;
75272;SDS011;63869;52.344;16.928;2022-11-15T14:25:21;56.65;;;24.67;;
75272;SDS011;63869;52.344;16.928;2022-11-15T14:30:34;51.30;;;22.83;;
75272;SDS011;63869;52.344;16.928;2022-11-15T14:32:59;61.33;;;24.58;;
75272;SDS011;63869;52.344;16.928;2022-11-15T14:35:24;59.35;;;24.95;;
75272;SDS011;63869;52.344;16.928;2022-11-15T14:37:50;54.13;;;24.48;;
75272;SDS011;63869;52.344;16.928;2022-11-15T14:40:16;69.18;;;28.35;;
75272;SDS011;63869;52.344;16.928;2022-11-15T14:42:44;58.65;;;25.13;;
75272;SDS011;63869;52.344;16.928;2022-11-15T14:45:20;59.22;;;24.88;;
75272;SDS011;63869;52.344;16.928;2022-11-15T14:47:46;62.90;;;26.85;;
75272;SDS011;63869;52.344;16.928;2022-11-15T14:50:13;61.50;;;26.98;;
75272;SDS011;63869;52.344;16.928;2022-11-15T14:52:43;63.22;;;27.10;;
75272;SDS011;63869;52.344;16.928;2022-11-15T14:55:14;57.47;;;23.92;;
75272;SDS011;63869;52.344;16.928;2022-11-15T14:57:44;61.25;;;25.35;;
75272;SDS011;63869;52.344;16.928;2022-11-15T15:00:10;68.78;;;26.70;;
75272;SDS011;63869;52.344;16.928;2022-11-15T15:02:36;63.80;;;25.75;;
75272;SDS011;63869;52.344;16.928;2022-11-15T15:05:09;57.88;;;26.50;;
75272;SDS011;63869;52.344;16.928;2022-11-15T15:07:37;62.22;;;25.88;;
75272;SDS011;63869;52.344;16.928;2022-11-15T15:10:02;57.20;;;25.23;;
75272;SDS011;63869;52.344;16.928;2022-11-15T15:12:28;60.10;;;26.55;;
75272;SDS011;63869;52.344;16.928;2022-11-15T15:14:54;58.95;;;26.10;;
75272;SDS011;63869;52.344;16.928;2022-11-15T15:17:20;55.35;;;25.25;;
75272;SDS011;63869;52.344;16.928;2022-11-15T15:19:45;60.13;;;25.58;;
75272;SDS011;63869;52.344;16.928;2022-11-15T15:22:15;55.42;;;25.98;;
75272;SDS011;63869;52.344;16.928;2022-11-15T15:24:43;60.80;;;25.70;;
75272;SDS011;63869;52.344;16.928;2022-11-15T15:27:09;66.15;;;27.00;;
75272;SDS011;63869;52.344;16.928;2022-11-15T15:29:34;56.63;;;26.50;;
75272;SDS011;63869;52.344;16.928;2022-11-15T15:32:00;55.35;;;25.33;;
75272;SDS011;63869;52.344;16.928;2022-11-15T15:34:25;56.10;;;24.13;;
75272;SDS011;63869;52.344;16.928;2022-11-15T15:37:06;52.63;;;21.95;;
75272;SDS011;63869;52.344;16.928;2022-11-15T15:39:54;46.25;;;22.08;;
75272;SDS011;63869;52.344;16.928;2022-11-15T15:42:21;55.90;;;22.27;;
75272;SDS011;63869;52.344;16.928;2022-11-15T15:44:47;56.72;;;22.48;;
75272;SDS011;63869;52.344;16.928;2022-11-15T15:47:17;57.75;;;23.77;;
75272;SDS011;63869;52.344;16.928;2022-11-15T15:52:12;46.60;;;20.02;;
75272;SDS011;63869;52.344;16.928;2022-11-15T15:54:38;42.95;;;19.90;;
75272;SDS011;63869;52.344;16.928;2022-11-15T15:57:04;57.08;;;23.52;;
75272;SDS011;63869;52.344;16.928;2022-11-15T15:59:30;45.15;;;21.02;;
75272;SDS011;63869;52.344;16.928;2022-11-15T16:01:56;42.85;;;19.33;;
75272;SDS011;63869;52.344;16.928;2022-11-15T16:04:21;53.88;;;22.63;;
75272;SDS011;63869;52.344;16.928;2022-11-15T16:06:46;54.03;;;23.02;;
75272;SDS011;63869;52.344;16.928;2022-11-15T16:09:15;52.75;;;22.35;;
75272;SDS011;63869;52.344;16.928;2022-11-15T16:11:45;50.08;;;21.10;;
75272;SDS011;63869;52.344;16.928;2022-11-15T16:14:12;47.65;;;22.40;;
75272;SDS011;63869;52.344;16.928;2022-11-15T16:16:37;53.70;;;22.98;;
75272;SDS011;63869;52.344;16.928;2022-11-15T16:19:03;49.47;;;22.63;;
75272;SDS011;63869;52.344;16.928;2022-11-15T16:21:29;50.70;;;23.42;;
75272;SDS011;63869;52.344;16.928;2022-11-15T16:23:54;52.25;;;23.98;;
75272;SDS011;63869;52.344;16.928;2022-11-15T16:26:23;69.90;;;25.45;;
75272;SDS011;63869;52.344;16.928;2022-11-15T16:28:51;51.72;;;24.83;;
75272;SDS011;63869;52.344;16.928;2022-11-15T16:31:17;59.05;;;25.02;;